sensor_id;sensor_type;location;lat;lon;timestamp;pressure;altitude;pressure_sealevel;temperature;humidity
50105;BME280;47690;39.202;-77.198;2023-07-13T00:02:09;99779.53;;;57.12;9.05
50105;BME280;47690;39.202;-77.198;2023-07-13T00:04:41;99780.53;;;56.79;9.62
50105;BME280;47690;39.202;-77.198;2023-07-13T00:07:17;99778.72;;;56.46;9.79
50105;BME280;47690;39.202;-77.198;2023-07-13T00:09:54;99772.25;;;56.29;10.00
50105;BME280;47690;39.202;-77.198;2023-07-13T00:12:35;99772.13;;;56.38;9.43
50105;BME280;47690;39.202;-77.198;2023-07-13T00:15:21;99778.47;;;56.26;9.72
50105;BME280;47690;39.202;-77.198;2023-07-13T00:17:54;99775.72;;;56.26;9.29
50105;BME280;47690;39.202;-77.198;2023-07-13T00:20:26;99768.31;;;56.18;9.46
50105;BME280;47690;39.202;-77.198;2023-07-13T00:22:55;99763.47;;;56.02;9.69
50105;BME280;47690;39.202;-77.198;2023-07-13T00:25:26;99768.75;;;55.95;10.27
50105;BME280;47690;39.202;-77.198;2023-07-13T00:28:02;99773.34;;;56.03;9.47
50105;BME280;47690;39.202;-77.198;2023-07-13T00:30:35;99772.69;;;56.06;10.08
50105;BME280;47690;39.202;-77.198;2023-07-13T00:33:06;99779.78;;;55.95;10.01
50105;BME280;47690;39.202;-77.198;2023-07-13T00:35:51;99779.16;;;56.11;10.16
50105;BME280;47690;39.202;-77.198;2023-07-13T00:38:27;99778.59;;;56.17;9.81
50105;BME280;47690;39.202;-77.198;2023-07-13T00:41:06;99775.44;;;55.60;10.47
50105;BME280;47690;39.202;-77.198;2023-07-13T00:43:52;99778.25;;;56.56;9.80
50105;BME280;47690;39.202;-77.198;2023-07-13T00:46:42;99775.47;;;56.31;9.72
50105;BME280;47690;39.202;-77.198;2023-07-13T00:49:16;99790.09;;;56.19;9.49
50105;BME280;47690;39.202;-77.198;2023-07-13T00:52:06;99786.13;;;55.95;9.99
50105;BME280;47690;39.202;-77.198;2023-07-13T00:54:47;99784.44;;;55.69;10.21
50105;BME280;47690;39.202;-77.198;2023-07-13T00:57:26;99785.00;;;55.63;9.71
50105;BME280;47690;39.202;-77.198;2023-07-13T00:59:59;99787.97;;;55.45;10.47
50105;BME280;47690;39.202;-77.198;2023-07-13T01:03:00;99792.50;;;55.75;9.53
50105;BME280;47690;39.202;-77.198;2023-07-13T01:05:39;99786.38;;;55.57;9.66
50105;BME280;47690;39.202;-77.198;2023-07-13T01:08:11;99779.25;;;55.55;9.61
50105;BME280;47690;39.202;-77.198;2023-07-13T01:10:56;99773.78;;;55.80;10.13
50105;BME280;47690;39.202;-77.198;2023-07-13T01:13:29;99790.03;;;55.48;9.72
50105;BME280;47690;39.202;-77.198;2023-07-13T01:16:02;99784.34;;;55.45;9.70
50105;BME280;47690;39.202;-77.198;2023-07-13T01:18:39;99786.66;;;55.42;10.22
50105;BME280;47690;39.202;-77.198;2023-07-13T01:21:11;99778.00;;;55.32;10.43
50105;BME280;47690;39.202;-77.198;2023-07-13T01:23:43;99785.91;;;55.33;10.38
50105;BME280;47690;39.202;-77.198;2023-07-13T01:26:18;99789.84;;;55.66;9.48
50105;BME280;47690;39.202;-77.198;2023-07-13T01:28:54;99786.31;;;56.12;9.27
50105;BME280;47690;39.202;-77.198;2023-07-13T01:31:27;99799.97;;;55.40;10.30
50105;BME280;47690;39.202;-77.198;2023-07-13T01:33:59;99795.66;;;55.09;10.31
50105;BME280;47690;39.202;-77.198;2023-07-13T01:36:30;99804.00;;;54.49;10.63
50105;BME280;47690;39.202;-77.198;2023-07-13T01:39:03;99798.41;;;54.28;10.35
50105;BME280;47690;39.202;-77.198;2023-07-13T01:41:35;99799.41;;;54.14;10.27
50105;BME280;47690;39.202;-77.198;2023-07-13T01:44:05;99802.50;;;54.04;10.72
50105;BME280;47690;39.202;-77.198;2023-07-13T01:46:35;99801.88;;;53.89;11.00
50105;BME280;47690;39.202;-77.198;2023-07-13T01:49:05;99808.69;;;53.92;10.66
50105;BME280;47690;39.202;-77.198;2023-07-13T01:51:37;99811.97;;;53.85;10.96
50105;BME280;47690;39.202;-77.198;2023-07-13T01:54:09;99814.03;;;53.88;10.75
50105;BME280;47690;39.202;-77.198;2023-07-13T01:56:41;99805.31;;;53.86;11.16
50105;BME280;47690;39.202;-77.198;2023-07-13T01:59:18;99802.41;;;53.83;11.21
50105;BME280;47690;39.202;-77.198;2023-07-13T02:01:49;99806.13;;;53.87;11.13
50105;BME280;47690;39.202;-77.198;2023-07-13T02:04:25;99797.56;;;53.79;10.74
50105;BME280;47690;39.202;-77.198;2023-07-13T02:06:58;99805.00;;;53.61;11.56
50105;BME280;47690;39.202;-77.198;2023-07-13T02:09:27;99808.91;;;53.51;10.87
50105;BME280;47690;39.202;-77.198;2023-07-13T02:12:00;99806.78;;;53.57;10.87
50105;BME280;47690;39.202;-77.198;2023-07-13T02:14:33;99808.88;;;53.78;10.75
50105;BME280;47690;39.202;-77.198;2023-07-13T02:17:04;99813.91;;;53.40;10.90
50105;BME280;47690;39.202;-77.198;2023-07-13T02:19:34;99817.31;;;53.64;10.71
50105;BME280;47690;39.202;-77.198;2023-07-13T02:22:05;99815.56;;;53.50;10.75
50105;BME280;47690;39.202;-77.198;2023-07-13T02:24:36;99822.31;;;53.26;11.17
50105;BME280;47690;39.202;-77.198;2023-07-13T02:27:08;99824.88;;;53.23;11.52
50105;BME280;47690;39.202;-77.198;2023-07-13T02:29:38;99833.31;;;53.18;11.52
50105;BME280;47690;39.202;-77.198;2023-07-13T02:32:09;99823.63;;;53.56;11.81
50105;BME280;47690;39.202;-77.198;2023-07-13T02:34:41;99826.53;;;53.59;11.29
50105;BME280;47690;39.202;-77.198;2023-07-13T02:37:12;99826.03;;;53.31;11.04
50105;BME280;47690;39.202;-77.198;2023-07-13T02:39:45;99830.44;;;53.49;11.53
50105;BME280;47690;39.202;-77.198;2023-07-13T02:42:19;99835.75;;;53.63;11.06
50105;BME280;47690;39.202;-77.198;2023-07-13T02:45:01;99838.34;;;53.60;11.09
50105;BME280;47690;39.202;-77.198;2023-07-13T02:47:33;99842.22;;;53.32;11.39
50105;BME280;47690;39.202;-77.198;2023-07-13T02:50:07;99845.13;;;53.45;11.08
50105;BME280;47690;39.202;-77.198;2023-07-13T02:52:39;99842.88;;;53.38;11.49
50105;BME280;47690;39.202;-77.198;2023-07-13T02:55:10;99840.44;;;53.19;11.51
50105;BME280;47690;39.202;-77.198;2023-07-13T02:57:42;99836.38;;;53.16;11.52
50105;BME280;47690;39.202;-77.198;2023-07-13T03:00:15;99844.16;;;53.23;11.02
50105;BME280;47690;39.202;-77.198;2023-07-13T03:02:54;99841.56;;;53.35;11.12
50105;BME280;47690;39.202;-77.198;2023-07-13T03:05:27;99832.81;;;53.24;11.33
50105;BME280;47690;39.202;-77.198;2023-07-13T03:07:59;99841.66;;;53.04;11.42
50105;BME280;47690;39.202;-77.198;2023-07-13T03:10:29;99833.06;;;52.79;11.85
50105;BME280;47690;39.202;-77.198;2023-07-13T03:13:02;99826.13;;;52.81;11.08
50105;BME280;47690;39.202;-77.198;2023-07-13T03:15:32;99819.47;;;52.82;11.61
50105;BME280;47690;39.202;-77.198;2023-07-13T03:18:02;99822.44;;;52.95;11.21
50105;BME280;47690;39.202;-77.198;2023-07-13T03:20:36;99816.09;;;52.94;11.24
50105;BME280;47690;39.202;-77.198;2023-07-13T03:23:07;99803.47;;;52.84;11.38
50105;BME280;47690;39.202;-77.198;2023-07-13T03:25:38;99804.28;;;52.85;11.56
50105;BME280;47690;39.202;-77.198;2023-07-13T03:28:09;99800.22;;;52.82;11.48
50105;BME280;47690;39.202;-77.198;2023-07-13T03:30:45;99799.28;;;52.96;11.27
50105;BME280;47690;39.202;-77.198;2023-07-13T03:33:18;99804.31;;;53.03;11.64
50105;BME280;47690;39.202;-77.198;2023-07-13T03:35:53;99793.81;;;53.05;11.80
50105;BME280;47690;39.202;-77.198;2023-07-13T03:38:25;99798.00;;;53.02;11.04
50105;BME280;47690;39.202;-77.198;2023-07-13T03:40:58;99797.03;;;52.98;11.20
50105;BME280;47690;39.202;-77.198;2023-07-13T03:43:29;99792.31;;;52.90;11.25
50105;BME280;47690;39.202;-77.198;2023-07-13T03:45:59;99794.75;;;52.82;11.24
50105;BME280;47690;39.202;-77.198;2023-07-13T03:48:38;99786.19;;;52.84;11.22
50105;BME280;47690;39.202;-77.198;2023-07-13T03:51:13;99778.56;;;52.81;11.20
50105;BME280;47690;39.202;-77.198;2023-07-13T03:53:46;99778.25;;;52.82;11.79
50105;BME280;47690;39.202;-77.198;2023-07-13T03:56:23;99772.53;;;52.70;11.87
50105;BME280;47690;39.202;-77.198;2023-07-13T03:58:53;99776.63;;;52.41;11.71
50105;BME280;47690;39.202;-77.198;2023-07-13T04:01:26;99766.66;;;52.45;11.47
50105;BME280;47690;39.202;-77.198;2023-07-13T04:03:58;99765.56;;;52.23;12.17
50105;BME280;47690;39.202;-77.198;2023-07-13T04:06:37;99762.19;;;52.26;11.78
50105;BME280;47690;39.202;-77.198;2023-07-13T04:09:09;99765.78;;;52.04;12.06
50105;BME280;47690;39.202;-77.198;2023-07-13T04:11:39;99759.00;;;52.01;12.01
50105;BME280;47690;39.202;-77.198;2023-07-13T04:14:11;99762.13;;;51.86;12.11
50105;BME280;47690;39.202;-77.198;2023-07-13T04:16:54;99751.41;;;52.07;12.25
50105;BME280;47690;39.202;-77.198;2023-07-13T04:19:27;99753.38;;;52.07;12.04
50105;BME280;47690;39.202;-77.198;2023-07-13T04:21:59;99758.38;;;51.82;12.45
50105;BME280;47690;39.202;-77.198;2023-07-13T04:24:31;99759.13;;;51.96;12.07
50105;BME280;47690;39.202;-77.198;2023-07-13T04:27:01;99765.13;;;51.98;12.14
50105;BME280;47690;39.202;-77.198;2023-07-13T04:29:33;99764.00;;;52.08;11.64
50105;BME280;47690;39.202;-77.198;2023-07-13T04:32:02;99759.22;;;51.82;12.31
50105;BME280;47690;39.202;-77.198;2023-07-13T04:34:33;99756.34;;;51.87;12.42
50105;BME280;47690;39.202;-77.198;2023-07-13T04:37:11;99756.97;;;51.84;11.88
50105;BME280;47690;39.202;-77.198;2023-07-13T04:39:53;99762.19;;;52.26;11.67
50105;BME280;47690;39.202;-77.198;2023-07-13T04:42:23;99758.34;;;52.04;11.93
50105;BME280;47690;39.202;-77.198;2023-07-13T04:44:57;99748.66;;;52.07;11.71
50105;BME280;47690;39.202;-77.198;2023-07-13T04:47:30;99755.56;;;51.96;12.36
50105;BME280;47690;39.202;-77.198;2023-07-13T04:50:00;99755.16;;;51.80;12.45
50105;BME280;47690;39.202;-77.198;2023-07-13T04:52:30;99752.91;;;51.82;11.89
50105;BME280;47690;39.202;-77.198;2023-07-13T04:55:03;99748.41;;;51.86;11.79
50105;BME280;47690;39.202;-77.198;2023-07-13T04:57:33;99744.41;;;51.92;11.72
50105;BME280;47690;39.202;-77.198;2023-07-13T05:00:05;99734.41;;;51.96;12.18
50105;BME280;47690;39.202;-77.198;2023-07-13T05:02:39;99735.84;;;51.94;12.26
50105;BME280;47690;39.202;-77.198;2023-07-13T05:05:13;99734.34;;;51.78;12.37
50105;BME280;47690;39.202;-77.198;2023-07-13T05:07:43;99727.72;;;51.80;12.40
50105;BME280;47690;39.202;-77.198;2023-07-13T05:10:17;99735.94;;;51.80;12.39
50105;BME280;47690;39.202;-77.198;2023-07-13T05:12:54;99724.53;;;53.64;11.33
50105;BME280;47690;39.202;-77.198;2023-07-13T05:15:26;99734.09;;;52.29;11.50
50105;BME280;47690;39.202;-77.198;2023-07-13T05:17:59;99735.63;;;51.81;11.84
50105;BME280;47690;39.202;-77.198;2023-07-13T05:20:31;99728.75;;;51.70;12.24
50105;BME280;47690;39.202;-77.198;2023-07-13T05:23:06;99732.25;;;51.61;11.83
50105;BME280;47690;39.202;-77.198;2023-07-13T05:25:43;99721.75;;;51.77;11.87
50105;BME280;47690;39.202;-77.198;2023-07-13T05:28:13;99717.59;;;51.66;12.16
50105;BME280;47690;39.202;-77.198;2023-07-13T05:30:48;99715.56;;;51.72;12.04
50105;BME280;47690;39.202;-77.198;2023-07-13T05:33:23;99713.00;;;51.75;12.37
50105;BME280;47690;39.202;-77.198;2023-07-13T05:35:55;99713.69;;;51.58;12.12
50105;BME280;47690;39.202;-77.198;2023-07-13T05:38:27;99713.50;;;51.55;12.41
50105;BME280;47690;39.202;-77.198;2023-07-13T05:40:57;99696.47;;;51.67;12.07
50105;BME280;47690;39.202;-77.198;2023-07-13T05:43:30;99701.31;;;51.70;12.38
50105;BME280;47690;39.202;-77.198;2023-07-13T05:46:00;99696.78;;;51.65;11.88
50105;BME280;47690;39.202;-77.198;2023-07-13T05:48:30;99698.78;;;51.50;12.49
50105;BME280;47690;39.202;-77.198;2023-07-13T05:51:01;99697.03;;;51.55;12.10
50105;BME280;47690;39.202;-77.198;2023-07-13T05:53:31;99697.16;;;51.49;12.59
50105;BME280;47690;39.202;-77.198;2023-07-13T05:56:04;99695.38;;;51.45;12.02
50105;BME280;47690;39.202;-77.198;2023-07-13T05:58:35;99690.94;;;51.89;11.67
50105;BME280;47690;39.202;-77.198;2023-07-13T06:01:08;99680.50;;;52.00;12.10
50105;BME280;47690;39.202;-77.198;2023-07-13T06:03:39;99675.09;;;51.86;11.98
50105;BME280;47690;39.202;-77.198;2023-07-13T06:06:14;99681.41;;;51.87;11.99
50105;BME280;47690;39.202;-77.198;2023-07-13T06:08:53;99677.38;;;51.61;12.19
50105;BME280;47690;39.202;-77.198;2023-07-13T06:11:29;99683.25;;;52.00;11.86
50105;BME280;47690;39.202;-77.198;2023-07-13T06:14:02;99674.28;;;51.31;12.61
50105;BME280;47690;39.202;-77.198;2023-07-13T06:16:41;99672.25;;;51.69;11.83
50105;BME280;47690;39.202;-77.198;2023-07-13T06:19:13;99673.06;;;51.23;12.67
50105;BME280;47690;39.202;-77.198;2023-07-13T06:21:51;99668.03;;;51.17;12.42
50105;BME280;47690;39.202;-77.198;2023-07-13T06:24:25;99668.72;;;51.45;12.29
50105;BME280;47690;39.202;-77.198;2023-07-13T06:26:57;99664.34;;;51.21;12.04
50105;BME280;47690;39.202;-77.198;2023-07-13T06:29:27;99670.09;;;51.57;12.08
50105;BME280;47690;39.202;-77.198;2023-07-13T06:32:01;99669.97;;;51.62;12.04
50105;BME280;47690;39.202;-77.198;2023-07-13T06:34:33;99672.19;;;51.37;12.06
50105;BME280;47690;39.202;-77.198;2023-07-13T06:37:03;99675.28;;;51.58;12.08
50105;BME280;47690;39.202;-77.198;2023-07-13T06:39:37;99671.28;;;51.64;12.20
50105;BME280;47690;39.202;-77.198;2023-07-13T06:42:18;99674.72;;;51.24;12.05
50105;BME280;47690;39.202;-77.198;2023-07-13T06:44:52;99669.53;;;51.23;12.25
50105;BME280;47690;39.202;-77.198;2023-07-13T06:47:23;99677.19;;;51.35;11.88
50105;BME280;47690;39.202;-77.198;2023-07-13T06:49:53;99670.50;;;51.41;12.34
50105;BME280;47690;39.202;-77.198;2023-07-13T06:52:23;99669.84;;;51.44;11.94
50105;BME280;47690;39.202;-77.198;2023-07-13T06:54:55;99668.28;;;51.29;12.60
50105;BME280;47690;39.202;-77.198;2023-07-13T06:57:27;99662.25;;;51.18;12.44
50105;BME280;47690;39.202;-77.198;2023-07-13T07:00:02;99671.72;;;52.21;11.58
50105;BME280;47690;39.202;-77.198;2023-07-13T07:02:33;99660.56;;;51.54;12.24
50105;BME280;47690;39.202;-77.198;2023-07-13T07:05:05;99661.38;;;51.86;11.93
50105;BME280;47690;39.202;-77.198;2023-07-13T07:07:35;99665.91;;;51.36;12.23
50105;BME280;47690;39.202;-77.198;2023-07-13T07:10:07;99668.34;;;51.38;12.39
50105;BME280;47690;39.202;-77.198;2023-07-13T07:12:42;99663.41;;;51.40;11.94
50105;BME280;47690;39.202;-77.198;2023-07-13T07:15:15;99670.06;;;53.13;11.35
50105;BME280;47690;39.202;-77.198;2023-07-13T07:17:53;99663.31;;;52.35;11.10
50105;BME280;47690;39.202;-77.198;2023-07-13T07:20:23;99652.88;;;53.34;11.20
50105;BME280;47690;39.202;-77.198;2023-07-13T07:22:54;99659.56;;;51.82;11.68
50105;BME280;47690;39.202;-77.198;2023-07-13T07:25:25;99660.28;;;51.87;11.69
50105;BME280;47690;39.202;-77.198;2023-07-13T07:27:55;99654.41;;;51.26;12.00
50105;BME280;47690;39.202;-77.198;2023-07-13T07:30:29;99649.13;;;51.38;12.08
50105;BME280;47690;39.202;-77.198;2023-07-13T07:33:02;99651.50;;;51.08;12.14
50105;BME280;47690;39.202;-77.198;2023-07-13T07:35:33;99663.66;;;50.93;12.54
50105;BME280;47690;39.202;-77.198;2023-07-13T07:38:09;99662.19;;;51.09;12.41
50105;BME280;47690;39.202;-77.198;2023-07-13T07:40:41;99662.94;;;51.47;11.86
50105;BME280;47690;39.202;-77.198;2023-07-13T07:43:18;99653.75;;;51.29;12.40
50105;BME280;47690;39.202;-77.198;2023-07-13T07:45:53;99666.34;;;51.30;12.24
50105;BME280;47690;39.202;-77.198;2023-07-13T07:48:23;99659.03;;;51.39;11.94
50105;BME280;47690;39.202;-77.198;2023-07-13T07:50:53;99662.16;;;51.32;12.27
50105;BME280;47690;39.202;-77.198;2023-07-13T07:53:24;99661.91;;;51.20;12.19
50105;BME280;47690;39.202;-77.198;2023-07-13T07:55:57;99667.06;;;51.13;12.51
50105;BME280;47690;39.202;-77.198;2023-07-13T07:58:51;99665.38;;;51.26;11.77
50105;BME280;47690;39.202;-77.198;2023-07-13T08:01:25;99670.28;;;51.15;12.36
50105;BME280;47690;39.202;-77.198;2023-07-13T08:03:57;99666.88;;;51.09;12.56
50105;BME280;47690;39.202;-77.198;2023-07-13T08:06:31;99668.31;;;51.06;11.84
50105;BME280;47690;39.202;-77.198;2023-07-13T08:09:06;99671.03;;;51.06;12.01
50105;BME280;47690;39.202;-77.198;2023-07-13T08:11:38;99673.78;;;50.92;12.71
50105;BME280;47690;39.202;-77.198;2023-07-13T08:14:14;99671.03;;;50.92;12.53
50105;BME280;47690;39.202;-77.198;2023-07-13T08:16:51;99669.91;;;51.07;12.31
50105;BME280;47690;39.202;-77.198;2023-07-13T08:19:27;99688.41;;;51.02;12.27
50105;BME280;47690;39.202;-77.198;2023-07-13T08:22:07;99679.69;;;51.68;11.61
50105;BME280;47690;39.202;-77.198;2023-07-13T08:24:38;99673.81;;;51.38;12.59
50105;BME280;47690;39.202;-77.198;2023-07-13T08:27:12;99665.00;;;51.73;11.90
50105;BME280;47690;39.202;-77.198;2023-07-13T08:29:52;99682.69;;;51.12;11.93
50105;BME280;47690;39.202;-77.198;2023-07-13T08:32:24;99681.53;;;51.50;12.33
50105;BME280;47690;39.202;-77.198;2023-07-13T08:34:55;99675.78;;;51.01;12.71
50105;BME280;47690;39.202;-77.198;2023-07-13T08:37:24;99671.28;;;50.82;12.37
50105;BME280;47690;39.202;-77.198;2023-07-13T08:39:55;99668.03;;;51.17;12.07
50105;BME280;47690;39.202;-77.198;2023-07-13T08:42:39;99664.63;;;51.11;12.53
50105;BME280;47690;39.202;-77.198;2023-07-13T08:45:35;99663.38;;;51.95;11.89
50105;BME280;47690;39.202;-77.198;2023-07-13T08:48:28;99660.00;;;52.07;11.35
50105;BME280;47690;39.202;-77.198;2023-07-13T08:56:53;99657.16;;;50.89;12.54
50105;BME280;47690;39.202;-77.198;2023-07-13T08:59:27;99659.13;;;50.60;12.58
50105;BME280;47690;39.202;-77.198;2023-07-13T09:05:32;99648.69;;;51.68;11.99
50105;BME280;47690;39.202;-77.198;2023-07-13T09:11:27;99637.13;;;50.65;12.65
50105;BME280;47690;39.202;-77.198;2023-07-13T09:14:26;99630.69;;;51.30;11.88
50105;BME280;47690;39.202;-77.198;2023-07-13T09:16:58;99625.88;;;50.53;12.47
50105;BME280;47690;39.202;-77.198;2023-07-13T09:19:32;99637.66;;;50.39;12.77
50105;BME280;47690;39.202;-77.198;2023-07-13T09:22:07;99627.78;;;51.03;12.01
50105;BME280;47690;39.202;-77.198;2023-07-13T09:24:57;99623.38;;;51.02;12.21
50105;BME280;47690;39.202;-77.198;2023-07-13T09:27:39;99618.47;;;50.90;12.82
50105;BME280;47690;39.202;-77.198;2023-07-13T09:32:52;99619.91;;;50.23;12.45
50105;BME280;47690;39.202;-77.198;2023-07-13T09:35:27;99633.19;;;50.01;13.29
50105;BME280;47690;39.202;-77.198;2023-07-13T09:38:18;99630.66;;;50.33;12.85
50105;BME280;47690;39.202;-77.198;2023-07-13T09:43:34;99615.69;;;50.02;12.55
50105;BME280;47690;39.202;-77.198;2023-07-13T09:46:03;99622.13;;;49.93;12.94
50105;BME280;47690;39.202;-77.198;2023-07-13T09:48:35;99611.78;;;49.89;12.40
50105;BME280;47690;39.202;-77.198;2023-07-13T09:51:15;99595.81;;;50.62;12.43
50105;BME280;47690;39.202;-77.198;2023-07-13T09:53:52;99610.50;;;50.01;12.79
50105;BME280;47690;39.202;-77.198;2023-07-13T09:56:28;99606.94;;;50.14;12.75
50105;BME280;47690;39.202;-77.198;2023-07-13T09:58:59;99607.81;;;50.52;12.38
50105;BME280;47690;39.202;-77.198;2023-07-13T10:01:36;99608.41;;;50.49;12.71
50105;BME280;47690;39.202;-77.198;2023-07-13T10:04:12;99608.31;;;50.54;12.80
50105;BME280;47690;39.202;-77.198;2023-07-13T10:06:42;99614.22;;;50.33;12.45
50105;BME280;47690;39.202;-77.198;2023-07-13T10:09:19;99615.34;;;50.18;13.04
50105;BME280;47690;39.202;-77.198;2023-07-13T10:11:54;99614.03;;;50.15;12.63
50105;BME280;47690;39.202;-77.198;2023-07-13T10:14:27;99612.59;;;50.46;12.77
50105;BME280;47690;39.202;-77.198;2023-07-13T10:17:01;99609.56;;;50.06;12.88
50105;BME280;47690;39.202;-77.198;2023-07-13T10:19:35;99613.22;;;50.01;12.73
50105;BME280;47690;39.202;-77.198;2023-07-13T10:24:54;99612.03;;;50.72;12.76
50105;BME280;47690;39.202;-77.198;2023-07-13T10:27:35;99610.69;;;50.33;12.55
50105;BME280;47690;39.202;-77.198;2023-07-13T10:33:02;99613.31;;;50.38;12.71
50105;BME280;47690;39.202;-77.198;2023-07-13T10:35:34;99611.19;;;50.35;12.35
50105;BME280;47690;39.202;-77.198;2023-07-13T10:38:10;99608.22;;;50.45;12.45
50105;BME280;47690;39.202;-77.198;2023-07-13T10:40:50;99615.94;;;50.43;13.11
50105;BME280;47690;39.202;-77.198;2023-07-13T10:43:43;99619.72;;;50.84;12.78
50105;BME280;47690;39.202;-77.198;2023-07-13T10:46:20;99617.41;;;50.63;13.03
50105;BME280;47690;39.202;-77.198;2023-07-13T10:49:13;99611.13;;;51.00;12.38
50105;BME280;47690;39.202;-77.198;2023-07-13T10:51:45;99616.22;;;50.69;13.14
50105;BME280;47690;39.202;-77.198;2023-07-13T10:54:32;99612.97;;;51.59;12.56
50105;BME280;47690;39.202;-77.198;2023-07-13T10:57:17;99615.44;;;51.69;11.89
50105;BME280;47690;39.202;-77.198;2023-07-13T11:00:30;99626.06;;;52.43;11.28
50105;BME280;47690;39.202;-77.198;2023-07-13T11:03:01;99638.44;;;51.28;12.32
50105;BME280;47690;39.202;-77.198;2023-07-13T11:05:33;99634.28;;;51.62;12.37
50105;BME280;47690;39.202;-77.198;2023-07-13T11:08:32;99630.72;;;51.93;12.27
50105;BME280;47690;39.202;-77.198;2023-07-13T11:11:02;99633.16;;;52.03;11.90
50105;BME280;47690;39.202;-77.198;2023-07-13T11:22:13;99655.25;;;52.39;11.54
50105;BME280;47690;39.202;-77.198;2023-07-13T11:25:02;99649.50;;;52.67;11.17
50105;BME280;47690;39.202;-77.198;2023-07-13T11:28:16;99652.06;;;52.54;12.08
50105;BME280;47690;39.202;-77.198;2023-07-13T11:33:45;99656.13;;;52.08;12.02
50105;BME280;47690;39.202;-77.198;2023-07-13T11:36:23;99662.22;;;51.64;12.48
50105;BME280;47690;39.202;-77.198;2023-07-13T11:39:05;99657.53;;;51.96;11.92
50105;BME280;47690;39.202;-77.198;2023-07-13T11:41:49;99663.03;;;51.96;12.91
50105;BME280;47690;39.202;-77.198;2023-07-13T11:44:23;99662.81;;;51.52;12.79
50105;BME280;47690;39.202;-77.198;2023-07-13T11:46:56;99667.84;;;51.13;13.04
50105;BME280;47690;39.202;-77.198;2023-07-13T11:49:42;99655.75;;;51.37;13.39
50105;BME280;47690;39.202;-77.198;2023-07-13T11:52:15;99661.09;;;51.97;12.55
50105;BME280;47690;39.202;-77.198;2023-07-13T11:54:55;99662.94;;;51.47;13.00
50105;BME280;47690;39.202;-77.198;2023-07-13T11:57:32;99672.00;;;51.47;13.35
50105;BME280;47690;39.202;-77.198;2023-07-13T12:00:12;99668.81;;;51.86;13.03
50105;BME280;47690;39.202;-77.198;2023-07-13T12:02:47;99663.81;;;51.88;13.02
50105;BME280;47690;39.202;-77.198;2023-07-13T12:05:20;99661.41;;;51.95;12.79
50105;BME280;47690;39.202;-77.198;2023-07-13T12:07:51;99666.13;;;52.03;12.58
50105;BME280;47690;39.202;-77.198;2023-07-13T12:10:27;99660.72;;;52.21;12.93
50105;BME280;47690;39.202;-77.198;2023-07-13T12:13:04;99655.06;;;52.26;13.10
50105;BME280;47690;39.202;-77.198;2023-07-13T12:15:42;99658.31;;;52.37;12.77
50105;BME280;47690;39.202;-77.198;2023-07-13T12:22:04;99666.31;;;52.74;13.04
50105;BME280;47690;39.202;-77.198;2023-07-13T12:24:34;99660.16;;;52.59;12.69
50105;BME280;47690;39.202;-77.198;2023-07-13T12:27:05;99663.06;;;52.54;13.00
50105;BME280;47690;39.202;-77.198;2023-07-13T12:29:35;99671.69;;;52.79;12.86
50105;BME280;47690;39.202;-77.198;2023-07-13T12:32:09;99674.25;;;53.02;13.40
50105;BME280;47690;39.202;-77.198;2023-07-13T12:34:55;99665.00;;;53.33;12.92
50105;BME280;47690;39.202;-77.198;2023-07-13T12:37:24;99668.75;;;54.97;11.83
50105;BME280;47690;39.202;-77.198;2023-07-13T12:39:53;99666.00;;;53.29;12.17
50105;BME280;47690;39.202;-77.198;2023-07-13T12:42:27;99675.59;;;53.70;13.04
50105;BME280;47690;39.202;-77.198;2023-07-13T12:45:11;99675.03;;;53.29;12.65
50105;BME280;47690;39.202;-77.198;2023-07-13T12:47:42;99679.59;;;53.25;12.66
50105;BME280;47690;39.202;-77.198;2023-07-13T12:50:19;99672.59;;;53.45;12.90
50105;BME280;47690;39.202;-77.198;2023-07-13T12:53:01;99673.00;;;53.83;12.46
50105;BME280;47690;39.202;-77.198;2023-07-13T12:55:31;99675.34;;;53.54;12.65
50105;BME280;47690;39.202;-77.198;2023-07-13T12:58:26;99684.28;;;53.99;12.47
50105;BME280;47690;39.202;-77.198;2023-07-13T13:00:58;99679.19;;;53.79;13.23
50105;BME280;47690;39.202;-77.198;2023-07-13T13:03:57;99679.75;;;53.94;13.68
50105;BME280;47690;39.202;-77.198;2023-07-13T13:06:38;99679.47;;;53.78;12.53
50105;BME280;47690;39.202;-77.198;2023-07-13T13:09:12;99672.34;;;53.77;13.39
50105;BME280;47690;39.202;-77.198;2023-07-13T13:11:42;99673.31;;;53.81;13.34
50105;BME280;47690;39.202;-77.198;2023-07-13T13:14:11;99670.75;;;53.76;12.85
50105;BME280;47690;39.202;-77.198;2023-07-13T13:16:48;99660.78;;;54.01;12.89
50105;BME280;47690;39.202;-77.198;2023-07-13T13:19:27;99659.09;;;54.39;13.22
50105;BME280;47690;39.202;-77.198;2023-07-13T13:21:56;99658.22;;;54.26;12.64
50105;BME280;47690;39.202;-77.198;2023-07-13T13:30:08;99652.63;;;55.66;11.99
50105;BME280;47690;39.202;-77.198;2023-07-13T13:33:04;99648.94;;;55.62;11.56
50105;BME280;47690;39.202;-77.198;2023-07-13T13:35:33;99648.56;;;55.51;12.21
50105;BME280;47690;39.202;-77.198;2023-07-13T13:38:01;99650.56;;;55.63;12.36
50105;BME280;47690;39.202;-77.198;2023-07-13T13:40:30;99657.69;;;55.18;12.38
50105;BME280;47690;39.202;-77.198;2023-07-13T13:42:59;99645.41;;;54.94;12.62
50105;BME280;47690;39.202;-77.198;2023-07-13T13:45:29;99641.72;;;54.90;12.41
50105;BME280;47690;39.202;-77.198;2023-07-13T13:47:57;99639.53;;;54.96;12.28
50105;BME280;47690;39.202;-77.198;2023-07-13T13:50:28;99637.44;;;55.14;12.44
50105;BME280;47690;39.202;-77.198;2023-07-13T13:52:57;99634.75;;;55.05;12.22
50105;BME280;47690;39.202;-77.198;2023-07-13T13:55:25;99636.50;;;55.10;12.99
50105;BME280;47690;39.202;-77.198;2023-07-13T13:57:54;99632.41;;;55.16;12.28
50105;BME280;47690;39.202;-77.198;2023-07-13T14:00:23;99621.47;;;55.91;11.70
50105;BME280;47690;39.202;-77.198;2023-07-13T14:02:53;99623.84;;;55.55;12.19
50105;BME280;47690;39.202;-77.198;2023-07-13T14:05:25;99622.59;;;55.52;12.72